Terminal Aerodrome Forecast
Issued by NWS North Platte, NE

Home | Current Version | Previous Version | Text Only | Print | Product List | Glossary Off
Versions: 1 2 3 4 5 6 7 8 9 10 11 12 13 14 15 16 17 18 19 20 21 22 23 24 25 26 27 28

000
FTUS43 KLBF 230700 AAA
TAFVTN
TAF AMD
KVTN 230704Z 2307/2406 33022G35KT 3SM -SN BR OVC013
      TEMPO 2307/2309 1SM -SN BLSN OVC009
     FM230900 33021G35KT 1SM -SN BLSN OVC008
     FM231800 33025G39KT 4SM -SN BLSN OVC011
     FM240100 33015G25KT P6SM OVC025=

USA.gov is the U.S. government's official web portal to all federal, state and local government web resources and services.